Time;durP1;ratioP1;P1;durP2;ratioP2;P2;SDS_P1;SDS_P2;PMS_P1;PMS_P2;Temp;Humidity;BMP_temperature;BMP_pressure;BME280_temperature;BME280_humidity;BME280_pressure;Samples;Min_cycle;Max_cycle;Signal;HPM_P1;HPM_P2
2021/12/27 00:04:56;;;;;;;5.47;2.47;;;;;;;-2.59;93.46;95721.97;10416006;28;20197;-62
2021/12/27 00:09:56;;;;;;;7.37;4.07;;;;;;;-2.71;95.33;95723.59;10415933;28;20223;-63
2021/12/27 00:14:56;;;;;;;8.40;3.57;;;;;;;-2.62;94.99;95721.34;10415803;28;20255;-63
2021/12/27 00:19:57;;;;;;;7.67;4.53;;;;;;;-2.69;97.31;95731.19;10414679;28;20254;-63
2021/12/27 00:24:57;;;;;;;11.07;4.47;;;;;;;-2.55;97.44;95718.28;10416263;28;20187;-62
2021/12/27 00:29:57;;;;;;;4.47;3.13;;;;;;;-2.58;99.40;95715.91;10414793;28;20208;-62
2021/12/27 00:34:58;;;;;;;13.80;4.30;;;;;;;-2.50;100.00;95717.97;10415104;28;20705;-60
2021/12/27 00:39:58;;;;;;;8.47;3.53;;;;;;;-2.46;100.00;95711.72;10414820;28;20588;-60
2021/12/27 00:44:59;;;;;;;6.97;3.67;;;;;;;-2.42;100.00;95707.22;10414631;28;20188;-61
2021/12/27 00:49:59;;;;;;;7.03;3.90;;;;;;;-2.40;100.00;95698.50;10414851;28;20209;-64
2021/12/27 00:55:00;;;;;;;7.73;3.83;;;;;;;-2.39;100.00;95705.28;10414185;28;20220;-64
2021/12/27 01:00:00;;;;;;;9.60;4.63;;;;;;;-2.34;100.00;95697.28;10413908;28;20227;-62
2021/12/27 01:05:00;;;;;;;6.20;3.10;;;;;;;-2.42;100.00;95695.22;10413650;28;20682;-62
2021/12/27 01:10:49;;;;;;;8.03;3.70;;;;;;;-2.43;100.00;95698.72;10413589;28;20212;-64
2021/12/27 01:20:37;;;;;;;9.13;4.97;;;;;;;-2.53;100.00;95685.69;10412406;28;20233;-64
2021/12/27 01:25:38;;;;;;;6.30;3.13;;;;;;;-2.47;100.00;95692.13;10413043;28;20193;-63
2021/12/27 01:30:46;;;;;;;7.13;4.30;;;;;;;-2.42;100.00;95686.69;10412570;28;20227;-64
2021/12/27 01:35:47;;;;;;;7.17;3.77;;;;;;;-2.36;100.00;95694.81;10412958;28;20315;-65
2021/12/27 01:40:50;;;;;;;12.73;3.90;;;;;;;-2.27;100.00;95695.94;10412278;28;20213;-62
2021/12/27 01:45:56;;;;;;;6.87;3.03;;;;;;;-2.20;100.00;95699.72;10412306;28;20239;-62
2021/12/27 01:50:57;;;;;;;10.83;4.30;;;;;;;-2.17;100.00;95686.69;10412414;28;20216;-62
2021/12/27 01:55:58;;;;;;;8.30;4.67;;;;;;;-2.14;100.00;95693.38;10411816;28;20228;-64
2021/12/27 02:01:00;;;;;;;9.57;4.57;;;;;;;-2.09;100.00;95695.63;10411574;28;20209;-61
2021/12/27 02:06:01;;;;;;;8.00;4.87;;;;;;;-2.13;100.00;95689.06;10411629;28;20938;-64
2021/12/27 02:11:02;;;;;;;7.10;4.00;;;;;;;-2.00;100.00;95685.56;10411690;28;20287;-63
2021/12/27 02:16:02;;;;;;;9.30;4.83;;;;;;;-1.89;100.00;95684.00;10411239;28;20302;-60
2021/12/27 02:21:04;;;;;;;8.10;4.57;;;;;;;-1.94;100.00;95686.88;10410566;28;20263;-62
2021/12/27 02:26:04;;;;;;;6.13;3.20;;;;;;;-1.88;100.00;95678.75;10411582;28;20238;-63
2021/12/27 02:31:05;;;;;;;8.13;4.87;;;;;;;-1.91;100.00;95676.41;10411014;28;20209;-63
2021/12/27 02:36:06;;;;;;;6.97;3.80;;;;;;;-1.90;100.00;95683.19;10411245;28;20254;-63
2021/12/27 02:41:08;;;;;;;8.27;4.17;;;;;;;-1.92;100.00;95673.94;10411093;28;20240;-62
2021/12/27 02:46:11;;;;;;;8.07;4.00;;;;;;;-1.86;100.00;95668.38;10410951;28;20184;-61
2021/12/27 02:51:12;;;;;;;8.03;4.20;;;;;;;-2.07;100.00;95660.41;10411163;28;20287;-62
2021/12/27 02:56:12;;;;;;;6.60;4.17;;;;;;;-2.12;100.00;95659.91;10410091;28;20303;-62
2021/12/27 03:01:19;;;;;;;7.87;4.37;;;;;;;-2.09;100.00;95644.31;10410321;28;20212;-63
2021/12/27 03:06:19;;;;;;;11.37;4.63;;;;;;;-2.07;100.00;95639.88;10409902;28;20729;-60
2021/12/27 03:11:20;;;;;;;7.33;4.13;;;;;;;-2.07;100.00;95642.44;10410045;28;20254;-61
2021/12/27 03:16:22;;;;;;;9.00;4.40;;;;;;;-1.92;100.00;95638.81;10410123;28;20228;-61
2021/12/27 03:21:23;;;;;;;6.77;4.13;;;;;;;-1.64;100.00;95632.59;10454264;22;20326;-62
2021/12/27 03:26:29;;;;;;;9.43;4.90;;;;;;;-1.72;100.00;95629.72;10498970;28;20187;-63
2021/12/27 03:38:06;;;;;;;15.53;9.60;;;;;;;-2.01;100.00;95619.75;10449123;28;20237;-62
2021/12/27 03:44:53;;;;;;;9.77;5.63;;;;;;;-2.08;100.00;95625.41;10500097;28;20223;-63
2021/12/27 03:56:38;;;;;;;5.53;2.57;;;;;;;-1.74;100.00;95610.25;10306954;28;20225;-60
2021/12/27 04:01:39;;;;;;;7.10;4.10;;;;;;;-1.59;100.00;95604.03;10481687;28;20226;-65
2021/12/27 04:06:45;;;;;;;7.40;3.60;;;;;;;-1.52;100.00;95606.97;10499202;28;20209;-63
2021/12/27 04:11:45;;;;;;;7.83;4.20;;;;;;;-1.59;100.00;95610.88;10499380;28;20215;-64
2021/12/27 04:17:40;;;;;;;5.73;3.30;;;;;;;-1.42;100.00;95604.53;10499620;28;20223;-63
2021/12/27 04:22:40;;;;;;;8.23;3.93;;;;;;;-1.57;100.00;95601.34;10509677;28;20321;-61
2021/12/27 04:28:01;;;;;;;4.83;2.83;;;;;;;-1.40;100.00;95592.44;10541823;28;20187;-63
2021/12/27 04:33:03;;;;;;;5.33;3.27;;;;;;;-1.26;100.00;95607.66;10540247;28;20219;-62
2021/12/27 04:38:03;;;;;;;6.50;3.90;;;;;;;-1.17;100.00;95596.69;10540635;28;20707;-62
2021/12/27 04:43:08;;;;;;;9.90;3.70;;;;;;;-1.34;100.00;95600.50;10541221;28;20214;-62
2021/12/27 04:48:51;;;;;;;11.30;5.70;;;;;;;-1.53;100.00;95595.03;10541071;28;20603;-64
2021/12/27 04:53:52;;;;;;;9.60;5.67;;;;;;;-1.55;100.00;95592.59;10539882;28;20226;-61
2021/12/27 04:58:52;;;;;;;11.93;5.70;;;;;;;-1.74;100.00;95582.00;10539928;28;20202;-62
2021/12/27 05:03:52;;;;;;;12.40;7.07;;;;;;;-1.89;100.00;95579.56;10539083;28;20206;-64
2021/12/27 05:08:53;;;;;;;10.47;6.03;;;;;;;-2.16;100.00;95587.44;10539985;28;20665;-63
2021/12/27 05:13:53;;;;;;;11.43;6.17;;;;;;;-1.98;100.00;95586.19;10539436;28;20591;-65
2021/12/27 05:19:17;;;;;;;11.80;6.50;;;;;;;-2.00;100.00;95589.78;10538999;28;20193;-63
2021/12/27 05:24:18;;;;;;;10.60;5.73;;;;;;;-2.17;100.00;95584.06;10538260;28;20230;-63
2021/12/27 05:29:19;;;;;;;11.03;6.00;;;;;;;-2.09;100.00;95583.53;10538756;28;20222;-63
2021/12/27 05:34:20;;;;;;;10.70;5.87;;;;;;;-2.04;100.00;95588.34;10538584;28;20715;-63
2021/12/27 05:39:48;;;;;;;9.70;5.33;;;;;;;-2.06;100.00;95585.09;10537833;28;20182;-63
2021/12/27 05:44:48;;;;;;;8.53;5.30;;;;;;;-2.10;100.00;95593.91;10535012;28;20201;-64
2021/12/27 05:49:48;;;;;;;11.37;5.80;;;;;;;-2.18;100.00;95597.00;10536481;28;20221;-63
2021/12/27 05:54:49;;;;;;;10.53;6.13;;;;;;;-2.11;100.00;95603.38;10536992;28;20260;-64
2021/12/27 05:59:49;;;;;;;9.97;5.90;;;;;;;-2.23;100.00;95607.59;10537903;28;20792;-63
2021/12/27 06:11:19;;;;;;;9.47;6.30;;;;;;;-2.20;100.00;95604.00;10483861;28;20715;-63
2021/12/27 06:16:20;;;;;;;11.63;6.50;;;;;;;-2.17;100.00;95594.34;10536604;28;20243;-64
2021/12/27 06:21:31;;;;;;;11.10;6.27;;;;;;;-2.10;100.00;95609.31;10534623;28;20363;-63
2021/12/27 06:39:04;;;;;;;9.63;6.07;;;;;;;-2.36;100.00;95602.50;10120551;29;20270;-63
2021/12/27 06:44:04;;;;;;;11.27;6.30;;;;;;;-2.35;100.00;95611.81;10476923;28;20235;-63
2021/12/27 06:49:05;;;;;;;12.67;6.93;;;;;;;-2.39;100.00;95607.00;10535975;28;20324;-63
2021/12/27 06:54:30;;;;;;;15.23;7.13;;;;;;;-2.28;100.00;95612.22;10535374;28;20305;-63
2021/12/27 06:59:30;;;;;;;11.83;7.17;;;;;;;-2.39;100.00;95610.38;10538158;28;20194;-64
2021/12/27 07:04:51;;;;;;;12.10;7.30;;;;;;;-2.39;100.00;95604.44;10543763;28;20239;-63
2021/12/27 07:11:09;;;;;;;14.47;7.57;;;;;;;-2.37;100.00;95608.53;10543425;28;20233;-63
2021/12/27 07:16:33;;;;;;;13.93;7.40;;;;;;;-2.40;100.00;95610.50;10276261;28;20605;-64
2021/12/27 07:21:33;;;;;;;14.40;8.23;;;;;;;-2.46;100.00;95613.47;10510094;28;20593;-63
2021/12/27 07:26:34;;;;;;;16.60;8.00;;;;;;;-2.36;100.00;95620.44;10542990;28;20183;-63
2021/12/27 07:31:34;;;;;;;11.30;6.90;;;;;;;-2.35;100.00;95621.25;10542203;28;20210;-63
2021/12/27 07:36:34;;;;;;;18.90;8.57;;;;;;;-2.32;100.00;95628.75;10542056;28;20304;-63
2021/12/27 07:41:35;;;;;;;15.30;8.67;;;;;;;-2.20;100.00;95617.63;10542082;28;20262;-63
2021/12/27 07:46:40;;;;;;;19.53;7.90;;;;;;;-2.10;100.00;95619.56;10523523;28;20222;-63
2021/12/27 07:51:40;;;;;;;16.80;8.97;;;;;;;-1.99;100.00;95612.78;10542379;28;20206;-64
2021/12/27 07:57:30;;;;;;;;;;;;;;;;;;;;;
2021/12/27 08:02:55;;;;;;;18.90;9.50;;;;;;;-2.00;100.00;95605.19;10513865;28;20232;-64
2021/12/27 08:07:55;;;;;;;14.90;9.17;;;;;;;-2.10;100.00;95604.19;10533967;28;20197;-62
2021/12/27 08:12:56;;;;;;;19.73;10.47;;;;;;;-2.00;100.00;95613.69;10537140;28;20704;-64
2021/12/27 08:17:56;;;;;;;17.20;9.87;;;;;;;-1.97;100.00;95613.47;10535935;28;20218;-63
2021/12/27 08:23:57;;;;;;;18.83;9.83;;;;;;;-1.85;100.00;95604.13;10506131;28;20235;-64
2021/12/27 08:28:57;;;;;;;21.10;10.63;;;;;;;-1.90;100.00;95611.31;10484165;28;20200;-63
2021/12/27 08:33:58;;;;;;;22.47;11.23;;;;;;;-2.01;100.00;95599.22;10480568;28;20230;-63
2021/12/27 08:39:14;;;;;;;22.67;11.00;;;;;;;-1.82;100.00;95601.31;10453054;28;20195;-64
2021/12/27 08:44:45;;;;;;;18.60;10.23;;;;;;;-1.69;100.00;95595.31;10452498;28;20227;-63
2021/12/27 08:49:45;;;;;;;11.80;6.63;;;;;;;-1.35;100.00;95601.41;10443796;28;20289;-64
2021/12/27 08:54:45;;;;;;;20.07;10.57;;;;;;;-1.37;100.00;95602.47;10453260;28;20232;-64
2021/12/27 08:59:46;;;;;;;23.27;11.37;;;;;;;-1.41;100.00;95601.06;10453021;28;20212;-65
2021/12/27 09:05:09;;;;;;;22.10;10.43;;;;;;;-1.06;100.00;95598.50;10453085;28;20184;-65
2021/12/27 09:10:10;;;;;;;29.07;12.70;;;;;;;-0.88;100.00;95596.31;10451001;28;20229;-63
2021/12/27 09:15:11;;;;;;;22.47;11.07;;;;;;;-0.89;100.00;95579.25;10452105;28;20204;-62
2021/12/27 09:20:11;;;;;;;25.30;10.87;;;;;;;-0.77;100.00;95569.81;10455776;28;20231;-64
2021/12/27 09:25:12;;;;;;;23.83;12.60;;;;;;;-0.60;100.00;95560.81;10436073;22;20242;-62
2021/12/27 09:30:12;;;;;;;18.90;11.63;;;;;;;-0.69;100.00;95564.91;10409938;28;20196;-62
2021/12/27 09:35:13;;;;;;;23.60;10.73;;;;;;;-0.86;100.00;95563.59;10409754;28;20212;-62
2021/12/27 09:40:13;;;;;;;27.77;13.07;;;;;;;-0.53;100.00;95562.00;10402516;28;20208;-61
2021/12/27 09:45:13;;;;;;;31.30;18.03;;;;;;;-0.31;100.00;95556.00;10381990;28;20212;-60
2021/12/27 09:50:18;;;;;;;28.33;15.20;;;;;;;0.59;100.00;95557.56;10380284;28;20197;-63
2021/12/27 09:55:18;;;;;;;27.20;14.70;;;;;;;1.55;100.00;95547.16;10369584;28;20316;-62
2021/12/27 10:00:18;;;;;;;10.47;5.80;;;;;;;2.69;99.97;95490.75;10369570;28;20250;-59
2021/12/27 10:05:21;;;;;;;11.83;5.17;;;;;;;2.31;93.95;95479.47;10369213;28;20209;-61
2021/12/27 10:10:22;;;;;;;10.67;5.80;;;;;;;1.62;95.78;95486.31;10368985;28;20189;-59
2021/12/27 10:15:32;;;;;;;8.67;4.10;;;;;;;0.86;99.67;95515.03;10367761;28;20221;-62
2021/12/27 10:20:33;;;;;;;8.60;5.07;;;;;;;0.85;100.00;95506.47;10368333;28;20555;-62
2021/12/27 10:25:33;;;;;;;6.83;3.53;;;;;;;0.90;100.00;95490.63;10408785;28;20239;-62
2021/12/27 10:30:35;;;;;;;8.97;4.93;;;;;;;1.30;100.00;95484.69;10409552;28;20192;-63
2021/12/27 10:35:41;;;;;;;10.53;5.63;;;;;;;1.52;100.00;95475.16;10414707;28;20709;-62
2021/12/27 10:40:52;;;;;;;10.13;5.10;;;;;;;2.16;100.00;95467.91;10417610;28;20203;-58
2021/12/27 10:46:00;;;;;;;7.93;3.93;;;;;;;2.26;96.07;95442.91;10435108;28;20211;-62
2021/12/27 10:51:02;;;;;;;9.27;4.87;;;;;;;1.15;100.00;95467.94;10458773;28;20215;-63
2021/12/27 10:56:02;;;;;;;9.93;5.10;;;;;;;1.59;100.00;95451.25;10458267;28;20227;-59
2021/12/27 11:01:07;;;;;;;16.00;9.03;;;;;;;0.85;100.00;95465.22;10458740;28;20214;-62
2021/12/27 11:06:10;;;;;;;8.37;4.63;;;;;;;0.79;100.00;95475.22;10457964;28;20199;-63
2021/12/27 11:11:10;;;;;;;28.43;13.83;;;;;;;0.44;100.00;95464.28;10454980;28;20211;-63
2021/12/27 11:16:11;;;;;;;8.60;5.30;;;;;;;0.48;100.00;95459.72;10450380;28;20220;-60
2021/12/27 11:21:14;;;;;;;9.90;5.83;;;;;;;0.73;100.00;95452.53;10455908;28;20764;-58
2021/12/27 11:26:21;;;;;;;10.37;5.77;;;;;;;0.75;100.00;95442.91;10456345;28;20195;-62
2021/12/27 11:31:31;;;;;;;9.43;5.40;;;;;;;0.50;100.00;95442.34;10456985;28;20220;-61
2021/12/27 11:36:34;;;;;;;10.20;5.43;;;;;;;0.31;100.00;95448.22;10456438;28;20291;-61
2021/12/27 11:41:35;;;;;;;10.07;5.20;;;;;;;0.10;100.00;95436.09;10444842;28;20221;-62
2021/12/27 11:46:48;;;;;;;8.93;5.37;;;;;;;0.07;100.00;95426.06;10443277;28;20199;-61
2021/12/27 11:51:49;;;;;;;11.60;7.63;;;;;;;0.08;100.00;95432.84;10453555;28;20758;-62
2021/12/27 11:56:49;;;;;;;14.93;6.73;;;;;;;0.28;100.00;95423.50;10454964;28;20274;-57
2021/12/27 12:01:53;;;;;;;12.67;6.67;;;;;;;0.36;100.00;95433.19;10446114;28;20205;-59
2021/12/27 12:06:53;;;;;;;9.73;5.53;;;;;;;0.49;100.00;95422.69;10438808;28;20605;-60
2021/12/27 12:12:04;;;;;;;13.47;7.67;;;;;;;0.33;100.00;95416.22;10423216;28;20240;-62
2021/12/27 12:17:07;;;;;;;16.67;8.13;;;;;;;0.64;100.00;95412.88;10447652;28;20212;-61
2021/12/27 12:22:34;;;;;;;14.73;6.40;;;;;;;0.89;100.00;95398.75;10453278;28;20335;-61
2021/12/27 12:27:34;;;;;;;13.80;7.47;;;;;;;0.70;100.00;95404.63;10454036;28;20198;-60
2021/12/27 12:32:35;;;;;;;12.47;7.00;;;;;;;0.80;100.00;95413.22;10449472;28;20227;-60
2021/12/27 12:37:35;;;;;;;13.27;7.70;;;;;;;0.84;100.00;95424.94;10449340;28;20443;-61
2021/12/27 12:42:36;;;;;;;9.07;4.80;;;;;;;0.98;100.00;95434.09;10443528;28;20231;-59
2021/12/27 12:47:41;;;;;;;9.10;3.80;;;;;;;0.87;100.00;95432.41;10438270;28;20211;-62
2021/12/27 12:52:59;;;;;;;10.40;6.40;;;;;;;0.53;100.00;95424.06;10443301;28;20212;-62
2021/12/27 12:57:59;;;;;;;9.30;5.20;;;;;;;0.47;100.00;95427.16;10429558;28;20245;-58
2021/12/27 13:03:10;;;;;;;14.70;8.83;;;;;;;0.35;100.00;95431.53;10435813;28;20229;-61
2021/12/27 13:08:12;;;;;;;17.93;10.93;;;;;;;0.28;100.00;95446.69;10451571;28;20191;-61
2021/12/27 13:13:13;;;;;;;11.70;6.23;;;;;;;0.23;100.00;95448.00;10421302;28;20209;-62
2021/12/27 13:18:17;;;;;;;15.07;8.27;;;;;;;0.18;100.00;95445.78;10411832;28;20228;-62
2021/12/27 13:23:19;;;;;;;12.50;8.07;;;;;;;-0.05;100.00;95450.22;10411312;28;20236;-62
2021/12/27 13:28:34;;;;;;;10.73;6.23;;;;;;;0.09;100.00;95441.38;10445507;28;20187;-63
2021/12/27 13:33:49;;;;;;;25.23;15.10;;;;;;;0.07;100.00;95430.41;10452215;28;20305;-62
2021/12/27 13:39:13;;;;;;;19.73;10.30;;;;;;;0.09;100.00;95428.50;10434525;28;20191;-62
2021/12/27 13:44:14;;;;;;;17.20;9.13;;;;;;;0.11;100.00;95431.78;10446646;28;20223;-59
2021/12/27 13:49:14;;;;;;;14.37;8.67;;;;;;;0.20;100.00;95423.31;10414639;28;20265;-60
2021/12/27 13:54:18;;;;;;;15.40;7.37;;;;;;;0.24;100.00;95422.13;10399499;28;20216;-61
2021/12/27 13:59:22;;;;;;;10.60;6.63;;;;;;;0.23;100.00;95422.25;10426640;28;20215;-61
2021/12/27 14:04:23;;;;;;;12.03;6.00;;;;;;;0.46;100.00;95420.34;10440797;28;20215;-61
2021/12/27 14:09:26;;;;;;;11.93;6.43;;;;;;;0.43;100.00;95411.13;10430226;28;20198;-60
2021/12/27 14:14:44;;;;;;;13.53;7.27;;;;;;;0.66;100.00;95426.47;10441290;28;20647;-61
2021/12/27 14:19:47;;;;;;;13.17;7.87;;;;;;;0.79;100.00;95426.25;10444560;28;20691;-61
2021/12/27 14:24:54;;;;;;;6.77;5.07;;;;;;;0.74;100.00;95423.25;10439563;28;20239;-62
2021/12/27 14:30:29;;;;;;;9.57;6.10;;;;;;;0.62;100.00;95423.31;10444483;28;20180;-61
2021/12/27 14:35:36;;;;;;;10.57;5.30;;;;;;;0.74;100.00;95428.41;10447348;28;20252;-62
2021/12/27 14:40:39;;;;;;;27.03;13.03;;;;;;;0.83;100.00;95438.75;10445601;28;20239;-62
2021/12/27 14:45:40;;;;;;;11.43;6.03;;;;;;;0.81;100.00;95444.97;10430312;28;20199;-62
2021/12/27 14:50:42;;;;;;;9.97;5.80;;;;;;;0.84;100.00;95444.72;10449205;28;20220;-62
2021/12/27 14:55:43;;;;;;;11.20;6.33;;;;;;;0.61;100.00;95439.69;10426622;28;20261;-62
2021/12/27 15:00:56;;;;;;;11.00;6.37;;;;;;;0.42;100.00;95437.03;10448674;28;20697;-61
2021/12/27 15:05:56;;;;;;;7.20;4.53;;;;;;;0.28;100.00;95431.22;10446632;28;20203;-62
2021/12/27 15:10:56;;;;;;;8.30;4.43;;;;;;;0.14;100.00;95431.56;10421013;28;20219;-60
2021/12/27 15:15:57;;;;;;;10.53;6.23;;;;;;;0.02;100.00;95440.25;10446216;28;20259;-60
2021/12/27 15:20:57;;;;;;;10.20;6.77;;;;;;;-0.10;100.00;95450.59;10448076;28;20255;-61
2021/12/27 15:25:57;;;;;;;10.87;6.83;;;;;;;-0.19;100.00;95453.88;10450433;28;20181;-61
2021/12/27 15:30:58;;;;;;;11.93;6.33;;;;;;;-0.11;100.00;95454.09;10524544;22;20238;-69
2021/12/27 15:35:59;;;;;;;10.87;6.27;;;;;;;-0.14;100.00;95472.34;10535130;28;20688;-66
2021/12/27 15:41:00;;;;;;;9.50;4.57;;;;;;;-0.45;100.00;95471.38;10493097;28;20294;-65
2021/12/27 15:46:01;;;;;;;9.93;5.70;;;;;;;-0.71;100.00;95471.63;10484927;28;20615;-64
2021/12/27 15:51:02;;;;;;;19.67;10.00;;;;;;;-0.88;100.00;95472.13;10495396;28;20219;-65
2021/12/27 15:56:04;;;;;;;12.03;6.97;;;;;;;-0.93;100.00;95454.47;10494847;28;20219;-66
2021/12/27 16:01:06;;;;;;;12.90;6.60;;;;;;;-1.12;100.00;95465.31;10491747;28;20204;-68
2021/12/27 16:06:06;;;;;;;12.50;5.83;;;;;;;-1.12;100.00;95458.44;10488222;28;20187;-67
2021/12/27 16:11:06;;;;;;;24.73;12.37;;;;;;;-1.24;100.00;95464.50;10494090;28;20202;-66
2021/12/27 16:16:08;;;;;;;18.53;8.67;;;;;;;-1.13;100.00;95461.94;10493646;28;20222;-68
2021/12/27 16:21:11;;;;;;;15.13;8.57;;;;;;;-1.23;100.00;95473.81;10494468;28;20204;-64
2021/12/27 16:26:14;;;;;;;30.97;12.50;;;;;;;-1.15;100.00;95471.50;10495962;28;20192;-63
2021/12/27 16:31:14;;;;;;;15.50;7.27;;;;;;;-1.07;100.00;95445.25;10495454;28;20239;-64
2021/12/27 16:36:15;;;;;;;27.27;11.33;;;;;;;-1.21;100.00;95437.75;10495110;28;20219;-66
2021/12/27 16:41:15;;;;;;;59.67;18.57;;;;;;;-1.26;100.00;95432.94;10455843;28;20284;-66
2021/12/27 16:46:15;;;;;;;37.97;12.77;;;;;;;-1.35;100.00;95434.44;10456886;28;20357;-66
2021/12/27 16:51:16;;;;;;;25.67;13.27;;;;;;;-1.48;100.00;95446.59;10493757;28;20708;-64
2021/12/27 16:56:16;;;;;;;25.80;11.13;;;;;;;-1.32;100.00;95434.25;10495750;28;20790;-64
2021/12/27 17:01:17;;;;;;;74.27;29.97;;;;;;;-1.37;100.00;95436.31;10496457;28;20704;-65
2021/12/27 17:06:18;;;;;;;17.93;9.80;;;;;;;-1.35;100.00;95443.91;10496485;28;20649;-64
2021/12/27 17:11:18;;;;;;;20.97;10.53;;;;;;;-1.36;100.00;95445.66;10493003;28;20265;-67
2021/12/27 17:16:21;;;;;;;18.43;10.13;;;;;;;-1.32;100.00;95456.53;10480708;28;20212;-66
2021/12/27 17:21:22;;;;;;;19.90;11.10;;;;;;;-1.44;100.00;95453.94;10472263;28;20216;-66
2021/12/27 17:26:22;;;;;;;26.57;12.70;;;;;;;-1.68;100.00;95466.84;10465676;28;20192;-64
2021/12/27 17:31:23;;;;;;;24.27;12.03;;;;;;;-1.68;100.00;95448.06;10453739;28;20614;-65
2021/12/27 17:36:23;;;;;;;27.50;16.10;;;;;;;-1.55;100.00;95443.63;10447806;28;20227;-65
2021/12/27 17:41:23;;;;;;;25.03;12.23;;;;;;;-1.52;100.00;95460.56;10440939;28;20799;-64
2021/12/27 17:46:24;;;;;;;27.50;12.07;;;;;;;-1.44;100.00;95460.81;10420423;28;20258;-64
2021/12/27 17:51:24;;;;;;;23.87;12.50;;;;;;;-1.49;100.00;95461.16;10412970;28;20217;-65
2021/12/27 17:56:24;;;;;;;28.80;15.13;;;;;;;-1.60;100.00;95479.13;10412243;28;20231;-66
2021/12/27 18:01:25;;;;;;;24.53;12.60;;;;;;;-1.67;100.00;95481.31;10412350;28;20208;-64
2021/12/27 18:06:25;;;;;;;27.43;13.67;;;;;;;-1.74;100.00;95484.44;10412333;28;20185;-64
2021/12/27 18:11:27;;;;;;;22.77;12.70;;;;;;;-1.70;100.00;95485.84;10411632;28;20690;-64
2021/12/27 18:16:27;;;;;;;25.87;14.00;;;;;;;-1.61;100.00;95477.47;10412077;28;20239;-65
2021/12/27 18:21:27;;;;;;;19.17;9.63;;;;;;;-1.52;100.00;95471.66;10407640;28;20697;-63
2021/12/27 18:26:28;;;;;;;25.20;13.10;;;;;;;-1.63;100.00;95477.59;10411323;28;20180;-64
2021/12/27 18:31:29;;;;;;;24.50;13.37;;;;;;;-1.93;100.00;95480.66;10419608;28;20322;-66
2021/12/27 18:36:30;;;;;;;17.77;9.87;;;;;;;-1.83;100.00;95473.09;10434021;28;20227;-66
2021/12/27 18:41:30;;;;;;;20.93;11.90;;;;;;;-2.10;100.00;95474.13;10437308;28;20590;-65
2021/12/27 18:46:31;;;;;;;26.70;13.50;;;;;;;-2.55;100.00;95476.47;10451664;28;20579;-65
2021/12/27 18:51:31;;;;;;;34.40;18.40;;;;;;;-2.50;100.00;95474.38;10452020;28;20298;-66
2021/12/27 18:56:32;;;;;;;76.40;38.00;;;;;;;-2.67;100.00;95475.56;10456732;28;20224;-63
2021/12/27 19:01:32;;;;;;;60.87;29.83;;;;;;;-2.47;100.00;95465.66;10459436;28;20705;-66
2021/12/27 19:06:33;;;;;;;31.97;16.97;;;;;;;-2.54;100.00;95472.97;10459678;28;20245;-64
2021/12/27 19:11:33;;;;;;;52.70;22.70;;;;;;;-2.61;100.00;95467.44;10449200;28;20227;-67
2021/12/27 19:16:34;;;;;;;49.73;23.07;;;;;;;-2.56;100.00;95467.97;10457650;28;20231;-65
2021/12/27 19:21:34;;;;;;;23.30;11.00;;;;;;;-1.69;100.00;95474.66;10457999;28;20208;-66
2021/12/27 19:26:35;;;;;;;24.43;11.33;;;;;;;-1.44;100.00;95456.53;10438379;28;20192;-66
2021/12/27 19:31:35;;;;;;;19.43;10.17;;;;;;;-1.19;100.00;95451.31;10457166;28;20659;-66
2021/12/27 19:36:35;;;;;;;22.03;10.30;;;;;;;-1.09;100.00;95450.50;10457716;28;20223;-67
2021/12/27 19:41:37;;;;;;;17.80;9.33;;;;;;;-0.89;100.00;95448.13;10434105;28;20206;-64
2021/12/27 19:46:37;;;;;;;20.77;10.53;;;;;;;-0.77;100.00;95436.91;10430186;28;20180;-65
2021/12/27 19:51:38;;;;;;;23.20;9.80;;;;;;;-0.42;100.00;95445.41;10449194;28;20223;-64
2021/12/27 19:56:38;;;;;;;18.60;9.20;;;;;;;-0.18;100.00;95445.25;10457218;28;20220;-65
2021/12/27 20:01:39;;;;;;;19.67;10.10;;;;;;;-0.28;100.00;95446.91;10456984;28;20207;-64
2021/12/27 20:06:39;;;;;;;15.23;7.57;;;;;;;-0.27;100.00;95449.34;10456220;28;20192;-66
2021/12/27 20:11:39;;;;;;;17.40;10.57;;;;;;;-0.08;100.00;95453.84;10456783;28;20216;-67
2021/12/27 20:16:40;;;;;;;24.17;11.47;;;;;;;-0.14;100.00;95459.47;10439838;28;20307;-66
2021/12/27 20:21:40;;;;;;;18.10;9.93;;;;;;;-0.26;100.00;95463.03;10415168;28;20207;-66
2021/12/27 20:26:42;;;;;;;14.50;7.83;;;;;;;-0.32;100.00;95469.50;10427601;28;20212;-65
2021/12/27 20:31:43;;;;;;;25.70;12.43;;;;;;;-0.37;100.00;95459.56;10439122;28;20972;-64
2021/12/27 20:36:43;;;;;;;15.37;7.10;;;;;;;-0.35;100.00;95454.28;10446302;28;20223;-62
2021/12/27 20:41:43;;;;;;;29.53;13.60;;;;;;;-0.41;100.00;95459.91;10446640;28;20299;-61
2021/12/27 20:46:45;;;;;;;15.80;8.80;;;;;;;-0.42;100.00;95463.41;10448481;28;20196;-63
2021/12/27 20:51:45;;;;;;;23.07;10.13;;;;;;;-0.47;100.00;95452.69;10447302;28;20774;-67
2021/12/27 20:56:45;;;;;;;20.23;10.43;;;;;;;-0.50;100.00;95458.88;10452445;28;20216;-66
2021/12/27 21:01:46;;;;;;;14.97;6.20;;;;;;;-0.54;100.00;95467.75;10480623;28;20237;-64
2021/12/27 21:06:46;;;;;;;18.57;9.87;;;;;;;-0.59;100.00;95457.00;10477993;28;20247;-63
2021/12/27 21:11:47;;;;;;;26.80;14.97;;;;;;;-0.72;100.00;95441.69;10495856;28;20226;-61
2021/12/27 21:16:48;;;;;;;20.17;10.67;;;;;;;-0.63;100.00;95423.00;10494914;28;20242;-64
2021/12/27 21:21:49;;;;;;;19.40;9.07;;;;;;;-0.69;100.00;95418.31;10494783;28;20222;-61
2021/12/27 21:26:50;;;;;;;14.37;8.50;;;;;;;-0.82;100.00;95426.16;10495274;28;20218;-61
2021/12/27 21:31:51;;;;;;;19.73;11.07;;;;;;;-0.67;100.00;95424.19;10452613;22;20245;-61
2021/12/27 21:36:51;;;;;;;22.83;10.37;;;;;;;-0.68;100.00;95408.88;10372132;28;20232;-60
2021/12/27 21:41:52;;;;;;;21.30;11.87;;;;;;;-0.82;100.00;95408.19;10371580;28;20224;-64
2021/12/27 21:46:55;;;;;;;18.20;10.43;;;;;;;-0.89;100.00;95425.00;10371281;28;20200;-62
2021/12/27 21:51:56;;;;;;;16.13;9.00;;;;;;;-0.86;100.00;95404.19;10371159;28;20213;-60
2021/12/27 21:57:00;;;;;;;18.47;9.97;;;;;;;-0.83;100.00;95406.53;10371899;28;20257;-63
2021/12/27 22:02:04;;;;;;;22.17;11.83;;;;;;;-0.80;100.00;95416.56;10370668;28;20653;-59
2021/12/27 22:07:04;;;;;;;21.87;10.97;;;;;;;-0.85;100.00;95405.03;10370722;28;20185;-60
2021/12/27 22:12:05;;;;;;;17.77;9.37;;;;;;;-0.85;100.00;95397.31;10371451;28;20217;-62
2021/12/27 22:17:05;;;;;;;23.40;10.40;;;;;;;-0.90;100.00;95377.91;10371030;28;20227;-61
2021/12/27 22:22:06;;;;;;;11.37;5.33;;;;;;;-0.83;100.00;95377.44;10371270;28;20205;-62
2021/12/27 22:27:06;;;;;;;17.40;10.17;;;;;;;-0.66;100.00;95376.13;10371880;28;20698;-60
2021/12/27 22:32:10;;;;;;;14.80;8.33;;;;;;;-0.67;100.00;95372.75;10407462;28;20235;-63
2021/12/27 22:37:15;;;;;;;14.93;7.03;;;;;;;-0.60;100.00;95375.63;10426053;28;20240;-62
2021/12/27 22:42:18;;;;;;;18.73;10.00;;;;;;;-0.73;100.00;95371.47;10426574;28;20231;-62
2021/12/27 22:47:18;;;;;;;19.87;9.70;;;;;;;-0.61;100.00;95371.44;10426271;28;20188;-63
2021/12/27 22:52:19;;;;;;;21.97;9.27;;;;;;;-0.69;100.00;95371.22;10423941;28;20215;-61
2021/12/27 22:57:25;;;;;;;25.87;12.13;;;;;;;-0.76;100.00;95376.03;10425602;28;20311;-62
2021/12/27 23:02:26;;;;;;;23.73;10.93;;;;;;;-0.72;100.00;95382.56;10407911;28;20200;-62
2021/12/27 23:07:36;;;;;;;18.10;7.77;;;;;;;-0.76;100.00;95363.19;10424468;28;20180;-60
2021/12/27 23:12:38;;;;;;;21.43;11.77;;;;;;;-0.86;100.00;95359.69;10424217;28;20579;-62
2021/12/27 23:17:39;;;;;;;21.07;10.50;;;;;;;-0.76;100.00;95361.41;10424468;28;20216;-62
2021/12/27 23:22:40;;;;;;;26.03;12.63;;;;;;;-0.86;100.00;95345.06;10424391;28;20217;-62
2021/12/27 23:27:42;;;;;;;24.07;13.27;;;;;;;-0.86;100.00;95350.22;10423917;28;20654;-61
2021/12/27 23:32:48;;;;;;;18.27;9.87;;;;;;;-0.74;100.00;95354.38;10423491;28;20240;-62
2021/12/27 23:37:49;;;;;;;19.67;9.63;;;;;;;-0.91;100.00;95357.47;10424368;28;20217;-62
2021/12/27 23:42:58;;;;;;;18.83;7.97;;;;;;;-0.85;100.00;95327.91;10417478;28;20223;-63
2021/12/27 23:48:21;;;;;;;20.87;10.57;;;;;;;-0.75;100.00;95339.91;10417232;28;20284;-61